sensor_id;sensor_type;location;lat;lon;timestamp;P1;durP1;ratioP1;P2;durP2;ratioP2
71622;SDS011;59473;53.214;5.728;2022-09-14T00:01:53;8.40;;;1.67;;
71622;SDS011;59473;53.214;5.728;2022-09-14T00:04:19;9.47;;;1.93;;
71622;SDS011;59473;53.214;5.728;2022-09-14T00:06:45;9.77;;;1.80;;
71622;SDS011;59473;53.214;5.728;2022-09-14T00:09:16;7.88;;;1.40;;
71622;SDS011;59473;53.214;5.728;2022-09-14T00:11:41;8.95;;;1.90;;
71622;SDS011;59473;53.214;5.728;2022-09-14T00:14:07;7.17;;;2.10;;
71622;SDS011;59473;53.214;5.728;2022-09-14T00:16:36;9.00;;;1.80;;
71622;SDS011;59473;53.214;5.728;2022-09-14T00:19:03;11.15;;;1.45;;
71622;SDS011;59473;53.214;5.728;2022-09-14T00:21:30;7.07;;;1.80;;
71622;SDS011;59473;53.214;5.728;2022-09-14T00:23:55;11.13;;;2.10;;
71622;SDS011;59473;53.214;5.728;2022-09-14T00:26:21;7.23;;;1.70;;
71622;SDS011;59473;53.214;5.728;2022-09-14T00:28:48;8.32;;;1.70;;
71622;SDS011;59473;53.214;5.728;2022-09-14T00:31:14;11.25;;;1.88;;
71622;SDS011;59473;53.214;5.728;2022-09-14T00:33:40;10.20;;;1.67;;
71622;SDS011;59473;53.214;5.728;2022-09-14T00:36:07;6.83;;;1.50;;
71622;SDS011;59473;53.214;5.728;2022-09-14T00:38:33;14.35;;;1.85;;
71622;SDS011;59473;53.214;5.728;2022-09-14T00:40:58;6.67;;;1.33;;
71622;SDS011;59473;53.214;5.728;2022-09-14T00:43:24;16.65;;;1.60;;
71622;SDS011;59473;53.214;5.728;2022-09-14T00:45:49;10.67;;;2.20;;
71622;SDS011;59473;53.214;5.728;2022-09-14T00:48:14;4.93;;;1.23;;
71622;SDS011;59473;53.214;5.728;2022-09-14T00:50:39;10.87;;;1.40;;
71622;SDS011;59473;53.214;5.728;2022-09-14T00:53:04;7.00;;;2.00;;
71622;SDS011;59473;53.214;5.728;2022-09-14T00:55:30;16.40;;;1.80;;
71622;SDS011;59473;53.214;5.728;2022-09-14T00:57:56;6.73;;;1.50;;
71622;SDS011;59473;53.214;5.728;2022-09-14T01:00:23;10.35;;;1.73;;
71622;SDS011;59473;53.214;5.728;2022-09-14T01:02:49;7.05;;;1.27;;
71622;SDS011;59473;53.214;5.728;2022-09-14T01:05:14;8.37;;;1.77;;
71622;SDS011;59473;53.214;5.728;2022-09-14T01:08:41;8.85;;;1.75;;
71622;SDS011;59473;53.214;5.728;2022-09-14T01:18:59;8.27;;;1.52;;
71622;SDS011;59473;53.214;5.728;2022-09-14T01:21:28;5.75;;;1.35;;
71622;SDS011;59473;53.214;5.728;2022-09-14T01:31:31;6.27;;;2.10;;
71622;SDS011;59473;53.214;5.728;2022-09-14T01:34:12;5.40;;;1.40;;
71622;SDS011;59473;53.214;5.728;2022-09-14T01:36:39;6.57;;;1.30;;
71622;SDS011;59473;53.214;5.728;2022-09-14T01:39:06;5.47;;;1.67;;
71622;SDS011;59473;53.214;5.728;2022-09-14T01:41:32;5.17;;;0.90;;
71622;SDS011;59473;53.214;5.728;2022-09-14T01:44:08;6.25;;;1.15;;
71622;SDS011;59473;53.214;5.728;2022-09-14T01:46:37;4.80;;;1.02;;
71622;SDS011;59473;53.214;5.728;2022-09-14T01:49:08;4.17;;;0.90;;
71622;SDS011;59473;53.214;5.728;2022-09-14T01:51:45;3.35;;;1.05;;
71622;SDS011;59473;53.214;5.728;2022-09-14T01:54:19;5.35;;;0.80;;
71622;SDS011;59473;53.214;5.728;2022-09-14T01:56:55;8.15;;;0.90;;
71622;SDS011;59473;53.214;5.728;2022-09-14T02:01:50;8.87;;;0.83;;
71622;SDS011;59473;53.214;5.728;2022-09-14T02:04:17;16.33;;;1.07;;
71622;SDS011;59473;53.214;5.728;2022-09-14T02:06:45;7.13;;;1.00;;
71622;SDS011;59473;53.214;5.728;2022-09-14T02:09:13;9.63;;;1.83;;
71622;SDS011;59473;53.214;5.728;2022-09-14T02:11:40;1.85;;;0.65;;
71622;SDS011;59473;53.214;5.728;2022-09-14T02:14:05;4.57;;;0.80;;
71622;SDS011;59473;53.214;5.728;2022-09-14T02:16:31;8.57;;;1.07;;
71622;SDS011;59473;53.214;5.728;2022-09-14T02:18:56;4.93;;;0.73;;
71622;SDS011;59473;53.214;5.728;2022-09-14T02:21:27;8.23;;;1.10;;
71622;SDS011;59473;53.214;5.728;2022-09-14T02:23:53;4.82;;;0.70;;
71622;SDS011;59473;53.214;5.728;2022-09-14T02:26:19;3.30;;;0.70;;
71622;SDS011;59473;53.214;5.728;2022-09-14T02:28:45;5.40;;;0.73;;
71622;SDS011;59473;53.214;5.728;2022-09-14T02:39:02;3.13;;;0.70;;
71622;SDS011;59473;53.214;5.728;2022-09-14T02:41:39;4.28;;;0.80;;
71622;SDS011;59473;53.214;5.728;2022-09-14T02:49:19;8.57;;;1.20;;
71622;SDS011;59473;53.214;5.728;2022-09-14T02:51:49;2.85;;;0.73;;
71622;SDS011;59473;53.214;5.728;2022-09-14T02:54:21;4.82;;;0.93;;
71622;SDS011;59473;53.214;5.728;2022-09-14T02:56:48;12.50;;;1.37;;
71622;SDS011;59473;53.214;5.728;2022-09-14T02:59:13;4.20;;;0.80;;
71622;SDS011;59473;53.214;5.728;2022-09-14T03:01:39;7.30;;;1.00;;
71622;SDS011;59473;53.214;5.728;2022-09-14T03:04:04;5.80;;;0.90;;
71622;SDS011;59473;53.214;5.728;2022-09-14T03:06:29;5.10;;;1.00;;
71622;SDS011;59473;53.214;5.728;2022-09-14T03:08:54;5.40;;;0.93;;
71622;SDS011;59473;53.214;5.728;2022-09-14T03:11:20;8.70;;;0.70;;
71622;SDS011;59473;53.214;5.728;2022-09-14T03:13:45;6.20;;;0.90;;
71622;SDS011;59473;53.214;5.728;2022-09-14T03:16:11;11.87;;;1.07;;
71622;SDS011;59473;53.214;5.728;2022-09-14T03:18:37;6.93;;;0.95;;
71622;SDS011;59473;53.214;5.728;2022-09-14T03:21:06;8.03;;;0.90;;
71622;SDS011;59473;53.214;5.728;2022-09-14T03:23:38;5.97;;;1.23;;
71622;SDS011;59473;53.214;5.728;2022-09-14T03:26:08;8.37;;;1.40;;
71622;SDS011;59473;53.214;5.728;2022-09-14T03:28:33;9.93;;;1.48;;
71622;SDS011;59473;53.214;5.728;2022-09-14T03:31:03;7.13;;;1.33;;
71622;SDS011;59473;53.214;5.728;2022-09-14T03:33:28;11.52;;;1.63;;
71622;SDS011;59473;53.214;5.728;2022-09-14T03:35:54;8.60;;;2.00;;
71622;SDS011;59473;53.214;5.728;2022-09-14T03:38:19;8.60;;;1.80;;
71622;SDS011;59473;53.214;5.728;2022-09-14T03:40:45;7.22;;;1.80;;
71622;SDS011;59473;53.214;5.728;2022-09-14T03:43:10;6.37;;;1.90;;
71622;SDS011;59473;53.214;5.728;2022-09-14T03:45:36;6.68;;;1.80;;
71622;SDS011;59473;53.214;5.728;2022-09-14T03:48:02;6.27;;;1.90;;
71622;SDS011;59473;53.214;5.728;2022-09-14T03:50:27;5.32;;;1.85;;
71622;SDS011;59473;53.214;5.728;2022-09-14T03:52:52;7.77;;;2.00;;
71622;SDS011;59473;53.214;5.728;2022-09-14T03:55:18;4.70;;;1.80;;
71622;SDS011;59473;53.214;5.728;2022-09-14T03:57:43;5.77;;;2.13;;
71622;SDS011;59473;53.214;5.728;2022-09-14T04:00:09;5.53;;;2.17;;
71622;SDS011;59473;53.214;5.728;2022-09-14T04:02:35;12.48;;;2.50;;
71622;SDS011;59473;53.214;5.728;2022-09-14T04:05:00;7.00;;;2.00;;
71622;SDS011;59473;53.214;5.728;2022-09-14T04:07:25;7.07;;;2.27;;
71622;SDS011;59473;53.214;5.728;2022-09-14T04:09:51;7.83;;;2.43;;
71622;SDS011;59473;53.214;5.728;2022-09-14T04:12:16;7.40;;;2.13;;
71622;SDS011;59473;53.214;5.728;2022-09-14T04:14:41;5.87;;;2.13;;
71622;SDS011;59473;53.214;5.728;2022-09-14T04:17:06;5.27;;;2.20;;
71622;SDS011;59473;53.214;5.728;2022-09-14T04:19:32;7.57;;;2.70;;
71622;SDS011;59473;53.214;5.728;2022-09-14T04:22:01;9.15;;;2.70;;
71622;SDS011;59473;53.214;5.728;2022-09-14T04:24:26;6.70;;;2.00;;
71622;SDS011;59473;53.214;5.728;2022-09-14T04:26:52;10.83;;;2.07;;
71622;SDS011;59473;53.214;5.728;2022-09-14T04:29:17;7.73;;;2.00;;
71622;SDS011;59473;53.214;5.728;2022-09-14T04:31:42;7.20;;;2.50;;
71622;SDS011;59473;53.214;5.728;2022-09-14T04:34:08;6.80;;;2.40;;
71622;SDS011;59473;53.214;5.728;2022-09-14T04:36:34;6.65;;;2.22;;
71622;SDS011;59473;53.214;5.728;2022-09-14T04:39:00;6.37;;;2.10;;
71622;SDS011;59473;53.214;5.728;2022-09-14T04:41:25;11.27;;;2.33;;
71622;SDS011;59473;53.214;5.728;2022-09-14T04:43:52;7.43;;;2.08;;
71622;SDS011;59473;53.214;5.728;2022-09-14T04:46:19;6.20;;;1.73;;
71622;SDS011;59473;53.214;5.728;2022-09-14T04:48:45;8.15;;;2.30;;
71622;SDS011;59473;53.214;5.728;2022-09-14T04:51:13;5.43;;;2.00;;
71622;SDS011;59473;53.214;5.728;2022-09-14T04:53:40;9.48;;;2.25;;
71622;SDS011;59473;53.214;5.728;2022-09-14T04:56:07;8.80;;;1.80;;
71622;SDS011;59473;53.214;5.728;2022-09-14T04:58:33;7.25;;;2.08;;
71622;SDS011;59473;53.214;5.728;2022-09-14T05:01:05;10.43;;;2.50;;
71622;SDS011;59473;53.214;5.728;2022-09-14T05:03:32;6.57;;;1.85;;
71622;SDS011;59473;53.214;5.728;2022-09-14T05:06:16;8.50;;;1.93;;
71622;SDS011;59473;53.214;5.728;2022-09-14T05:08:42;8.50;;;2.38;;
71622;SDS011;59473;53.214;5.728;2022-09-14T05:11:08;6.80;;;2.00;;
71622;SDS011;59473;53.214;5.728;2022-09-14T05:13:33;4.85;;;1.70;;
71622;SDS011;59473;53.214;5.728;2022-09-14T05:18:54;11.57;;;2.03;;
71622;SDS011;59473;53.214;5.728;2022-09-14T05:21:20;5.63;;;1.97;;
71622;SDS011;59473;53.214;5.728;2022-09-14T05:23:46;7.38;;;1.73;;
71622;SDS011;59473;53.214;5.728;2022-09-14T05:26:12;8.07;;;1.90;;
71622;SDS011;59473;53.214;5.728;2022-09-14T05:28:38;6.78;;;2.03;;
71622;SDS011;59473;53.214;5.728;2022-09-14T05:31:07;6.80;;;1.90;;
71622;SDS011;59473;53.214;5.728;2022-09-14T05:33:33;6.90;;;1.80;;
71622;SDS011;59473;53.214;5.728;2022-09-14T05:35:59;8.35;;;2.70;;
71622;SDS011;59473;53.214;5.728;2022-09-14T05:38:26;7.75;;;1.90;;
71622;SDS011;59473;53.214;5.728;2022-09-14T05:40:52;7.93;;;2.03;;
71622;SDS011;59473;53.214;5.728;2022-09-14T05:43:18;7.53;;;2.25;;
71622;SDS011;59473;53.214;5.728;2022-09-14T05:45:44;8.05;;;2.72;;
71622;SDS011;59473;53.214;5.728;2022-09-14T05:48:09;8.37;;;2.30;;
71622;SDS011;59473;53.214;5.728;2022-09-14T05:50:34;8.90;;;2.10;;
71622;SDS011;59473;53.214;5.728;2022-09-14T05:52:59;9.83;;;2.57;;
71622;SDS011;59473;53.214;5.728;2022-09-14T05:55:25;7.57;;;2.20;;
71622;SDS011;59473;53.214;5.728;2022-09-14T05:57:50;12.00;;;2.53;;
71622;SDS011;59473;53.214;5.728;2022-09-14T06:00:16;9.70;;;2.40;;
71622;SDS011;59473;53.214;5.728;2022-09-14T06:02:48;6.75;;;2.38;;
71622;SDS011;59473;53.214;5.728;2022-09-14T06:05:13;6.90;;;2.42;;
71622;SDS011;59473;53.214;5.728;2022-09-14T06:07:38;8.87;;;2.43;;
71622;SDS011;59473;53.214;5.728;2022-09-14T06:10:03;10.53;;;2.83;;
71622;SDS011;59473;53.214;5.728;2022-09-14T06:12:29;8.60;;;2.67;;
71622;SDS011;59473;53.214;5.728;2022-09-14T06:14:55;9.27;;;2.55;;
71622;SDS011;59473;53.214;5.728;2022-09-14T06:17:20;8.17;;;2.87;;
71622;SDS011;59473;53.214;5.728;2022-09-14T06:19:45;7.13;;;2.50;;
71622;SDS011;59473;53.214;5.728;2022-09-14T06:22:10;7.37;;;2.50;;
71622;SDS011;59473;53.214;5.728;2022-09-14T06:24:35;8.33;;;2.33;;
71622;SDS011;59473;53.214;5.728;2022-09-14T06:27:01;8.63;;;2.70;;
71622;SDS011;59473;53.214;5.728;2022-09-14T06:29:26;6.30;;;2.57;;
71622;SDS011;59473;53.214;5.728;2022-09-14T06:31:52;7.37;;;2.67;;
71622;SDS011;59473;53.214;5.728;2022-09-14T06:34:17;8.18;;;2.70;;
71622;SDS011;59473;53.214;5.728;2022-09-14T06:36:43;10.47;;;2.50;;
71622;SDS011;59473;53.214;5.728;2022-09-14T06:39:09;5.65;;;2.30;;
71622;SDS011;59473;53.214;5.728;2022-09-14T06:41:34;6.40;;;2.10;;
71622;SDS011;59473;53.214;5.728;2022-09-14T06:44:00;10.40;;;2.37;;
71622;SDS011;59473;53.214;5.728;2022-09-14T06:46:29;6.30;;;2.20;;
71622;SDS011;59473;53.214;5.728;2022-09-14T06:48:56;7.15;;;2.08;;
71622;SDS011;59473;53.214;5.728;2022-09-14T06:53:47;8.07;;;2.03;;
71622;SDS011;59473;53.214;5.728;2022-09-14T06:56:13;9.98;;;2.25;;
71622;SDS011;59473;53.214;5.728;2022-09-14T06:58:38;10.00;;;2.20;;
71622;SDS011;59473;53.214;5.728;2022-09-14T07:01:04;8.57;;;2.57;;
71622;SDS011;59473;53.214;5.728;2022-09-14T07:03:30;8.10;;;1.88;;
71622;SDS011;59473;53.214;5.728;2022-09-14T07:06:02;6.03;;;2.10;;
71622;SDS011;59473;53.214;5.728;2022-09-14T07:08:28;8.70;;;2.10;;
71622;SDS011;59473;53.214;5.728;2022-09-14T07:10:56;7.33;;;2.00;;
71622;SDS011;59473;53.214;5.728;2022-09-14T07:13:22;7.60;;;1.90;;
71622;SDS011;59473;53.214;5.728;2022-09-14T07:15:48;5.83;;;2.00;;
71622;SDS011;59473;53.214;5.728;2022-09-14T07:18:14;6.88;;;2.05;;
71622;SDS011;59473;53.214;5.728;2022-09-14T07:20:39;4.87;;;1.50;;
71622;SDS011;59473;53.214;5.728;2022-09-14T07:23:04;6.67;;;2.27;;
71622;SDS011;59473;53.214;5.728;2022-09-14T07:25:30;6.40;;;1.77;;
71622;SDS011;59473;53.214;5.728;2022-09-14T07:27:55;5.73;;;1.97;;
71622;SDS011;59473;53.214;5.728;2022-09-14T07:30:20;8.03;;;2.17;;
71622;SDS011;59473;53.214;5.728;2022-09-14T07:32:48;5.53;;;1.67;;
71622;SDS011;59473;53.214;5.728;2022-09-14T07:35:14;5.30;;;1.60;;
71622;SDS011;59473;53.214;5.728;2022-09-14T07:37:39;6.63;;;1.63;;
71622;SDS011;59473;53.214;5.728;2022-09-14T07:40:04;7.55;;;1.80;;
71622;SDS011;59473;53.214;5.728;2022-09-14T07:42:30;8.77;;;1.38;;
71622;SDS011;59473;53.214;5.728;2022-09-14T07:44:55;8.97;;;1.40;;
71622;SDS011;59473;53.214;5.728;2022-09-14T07:47:21;8.37;;;1.03;;
71622;SDS011;59473;53.214;5.728;2022-09-14T07:49:46;7.33;;;1.87;;
71622;SDS011;59473;53.214;5.728;2022-09-14T07:52:11;7.93;;;1.00;;
71622;SDS011;59473;53.214;5.728;2022-09-14T07:54:36;7.03;;;1.27;;
71622;SDS011;59473;53.214;5.728;2022-09-14T07:57:02;7.45;;;1.15;;
71622;SDS011;59473;53.214;5.728;2022-09-14T07:59:27;13.67;;;1.53;;
71622;SDS011;59473;53.214;5.728;2022-09-14T08:01:52;8.23;;;0.90;;
71622;SDS011;59473;53.214;5.728;2022-09-14T08:04:18;6.93;;;0.80;;
71622;SDS011;59473;53.214;5.728;2022-09-14T08:06:43;7.03;;;1.07;;
71622;SDS011;59473;53.214;5.728;2022-09-14T08:09:08;5.83;;;0.90;;
71622;SDS011;59473;53.214;5.728;2022-09-14T08:11:34;7.83;;;0.90;;
71622;SDS011;59473;53.214;5.728;2022-09-14T08:14:00;8.10;;;0.95;;
71622;SDS011;59473;53.214;5.728;2022-09-14T08:16:27;5.20;;;0.80;;
71622;SDS011;59473;53.214;5.728;2022-09-14T08:18:57;5.95;;;1.15;;
71622;SDS011;59473;53.214;5.728;2022-09-14T08:21:23;7.65;;;0.82;;
71622;SDS011;59473;53.214;5.728;2022-09-14T08:23:48;5.35;;;0.90;;
71622;SDS011;59473;53.214;5.728;2022-09-14T08:26:15;6.83;;;0.83;;
71622;SDS011;59473;53.214;5.728;2022-09-14T08:28:41;7.18;;;1.25;;
71622;SDS011;59473;53.214;5.728;2022-09-14T08:31:08;7.53;;;0.80;;
71622;SDS011;59473;53.214;5.728;2022-09-14T08:33:34;5.60;;;0.75;;
71622;SDS011;59473;53.214;5.728;2022-09-14T08:35:59;8.52;;;1.27;;
71622;SDS011;59473;53.214;5.728;2022-09-14T08:38:25;6.43;;;1.20;;
71622;SDS011;59473;53.214;5.728;2022-09-14T08:40:50;8.60;;;0.90;;
71622;SDS011;59473;53.214;5.728;2022-09-14T08:43:16;10.70;;;1.27;;
71622;SDS011;59473;53.214;5.728;2022-09-14T08:45:42;10.10;;;1.00;;
71622;SDS011;59473;53.214;5.728;2022-09-14T08:51:03;5.63;;;0.70;;
71622;SDS011;59473;53.214;5.728;2022-09-14T08:53:29;8.43;;;0.90;;
71622;SDS011;59473;53.214;5.728;2022-09-14T09:09:11;8.35;;;0.90;;
71622;SDS011;59473;53.214;5.728;2022-09-14T09:11:40;7.70;;;1.03;;
71622;SDS011;59473;53.214;5.728;2022-09-14T09:14:12;4.40;;;0.70;;
71622;SDS011;59473;53.214;5.728;2022-09-14T09:16:40;7.05;;;1.08;;
71622;SDS011;59473;53.214;5.728;2022-09-14T09:19:06;9.70;;;1.17;;
71622;SDS011;59473;53.214;5.728;2022-09-14T09:21:37;6.78;;;0.70;;
71622;SDS011;59473;53.214;5.728;2022-09-14T09:26:40;5.47;;;1.15;;
71622;SDS011;59473;53.214;5.728;2022-09-14T09:29:07;6.77;;;0.90;;
71622;SDS011;59473;53.214;5.728;2022-09-14T09:31:37;10.35;;;1.23;;
71622;SDS011;59473;53.214;5.728;2022-09-14T09:34:03;6.93;;;0.68;;
71622;SDS011;59473;53.214;5.728;2022-09-14T09:36:38;8.50;;;0.93;;
71622;SDS011;59473;53.214;5.728;2022-09-14T09:39:04;6.95;;;0.93;;
71622;SDS011;59473;53.214;5.728;2022-09-14T09:41:30;5.47;;;0.63;;
71622;SDS011;59473;53.214;5.728;2022-09-14T09:46:25;6.63;;;0.87;;
71622;SDS011;59473;53.214;5.728;2022-09-14T09:48:50;4.32;;;0.63;;
71622;SDS011;59473;53.214;5.728;2022-09-14T09:53:50;6.93;;;0.93;;
71622;SDS011;59473;53.214;5.728;2022-09-14T09:56:20;4.63;;;0.77;;
71622;SDS011;59473;53.214;5.728;2022-09-14T09:58:46;6.90;;;0.93;;
71622;SDS011;59473;53.214;5.728;2022-09-14T10:01:25;4.95;;;0.52;;
71622;SDS011;59473;53.214;5.728;2022-09-14T10:04:05;7.72;;;0.95;;
71622;SDS011;59473;53.214;5.728;2022-09-14T10:06:30;5.10;;;1.02;;
71622;SDS011;59473;53.214;5.728;2022-09-14T10:08:56;6.37;;;0.80;;
71622;SDS011;59473;53.214;5.728;2022-09-14T10:13:56;4.43;;;0.55;;
71622;SDS011;59473;53.214;5.728;2022-09-14T10:16:21;3.92;;;0.90;;
71622;SDS011;59473;53.214;5.728;2022-09-14T10:18:49;9.73;;;0.90;;
71622;SDS011;59473;53.214;5.728;2022-09-14T10:21:16;2.95;;;0.68;;
71622;SDS011;59473;53.214;5.728;2022-09-14T10:23:41;6.40;;;0.80;;
71622;SDS011;59473;53.214;5.728;2022-09-14T10:28:42;6.65;;;0.98;;
71622;SDS011;59473;53.214;5.728;2022-09-14T10:33:36;7.65;;;1.30;;
71622;SDS011;59473;53.214;5.728;2022-09-14T10:38:42;7.40;;;0.70;;
71622;SDS011;59473;53.214;5.728;2022-09-14T10:46:29;6.10;;;0.90;;
71622;SDS011;59473;53.214;5.728;2022-09-14T10:51:32;5.90;;;0.60;;
71622;SDS011;59473;53.214;5.728;2022-09-14T10:54:04;6.35;;;0.82;;
71622;SDS011;59473;53.214;5.728;2022-09-14T10:59:14;9.25;;;0.90;;
71622;SDS011;59473;53.214;5.728;2022-09-14T11:09:29;5.55;;;0.70;;
71622;SDS011;59473;53.214;5.728;2022-09-14T11:25:00;6.07;;;0.60;;
71622;SDS011;59473;53.214;5.728;2022-09-14T11:27:41;9.07;;;1.13;;
71622;SDS011;59473;53.214;5.728;2022-09-14T11:30:10;4.63;;;0.57;;
71622;SDS011;59473;53.214;5.728;2022-09-14T11:32:41;6.55;;;0.80;;
71622;SDS011;59473;53.214;5.728;2022-09-14T11:38:04;7.55;;;0.60;;
71622;SDS011;59473;53.214;5.728;2022-09-14T11:40:36;4.22;;;0.65;;
71622;SDS011;59473;53.214;5.728;2022-09-14T11:45:32;5.50;;;0.55;;
71622;SDS011;59473;53.214;5.728;2022-09-14T11:48:00;8.15;;;0.98;;
71622;SDS011;59473;53.214;5.728;2022-09-14T11:50:26;6.55;;;0.63;;
71622;SDS011;59473;53.214;5.728;2022-09-14T11:53:12;3.50;;;0.70;;
71622;SDS011;59473;53.214;5.728;2022-09-14T11:55:38;7.18;;;0.70;;
71622;SDS011;59473;53.214;5.728;2022-09-14T11:58:11;5.93;;;0.90;;
71622;SDS011;59473;53.214;5.728;2022-09-14T12:00:42;3.90;;;0.70;;
71622;SDS011;59473;53.214;5.728;2022-09-14T12:03:19;3.47;;;0.57;;
71622;SDS011;59473;53.214;5.728;2022-09-14T12:05:45;6.97;;;0.75;;
71622;SDS011;59473;53.214;5.728;2022-09-14T12:11:02;5.15;;;0.60;;
71622;SDS011;59473;53.214;5.728;2022-09-14T12:13:28;6.40;;;0.95;;
71622;SDS011;59473;53.214;5.728;2022-09-14T12:16:00;10.20;;;1.03;;
71622;SDS011;59473;53.214;5.728;2022-09-14T12:18:26;8.50;;;0.65;;
71622;SDS011;59473;53.214;5.728;2022-09-14T12:41:00;4.93;;;1.02;;
71622;SDS011;59473;53.214;5.728;2022-09-14T12:46:00;6.60;;;0.90;;
71622;SDS011;59473;53.214;5.728;2022-09-14T12:53:56;3.97;;;0.80;;
71622;SDS011;59473;53.214;5.728;2022-09-14T12:56:33;6.45;;;0.82;;
71622;SDS011;59473;53.214;5.728;2022-09-14T13:06:45;6.43;;;0.70;;
71622;SDS011;59473;53.214;5.728;2022-09-14T13:09:19;6.05;;;0.93;;
71622;SDS011;59473;53.214;5.728;2022-09-14T13:11:45;2.33;;;0.40;;
71622;SDS011;59473;53.214;5.728;2022-09-14T13:14:14;4.70;;;0.98;;
71622;SDS011;59473;53.214;5.728;2022-09-14T13:16:41;4.35;;;0.85;;
71622;SDS011;59473;53.214;5.728;2022-09-14T13:19:18;3.22;;;0.70;;
71622;SDS011;59473;53.214;5.728;2022-09-14T13:21:47;6.35;;;1.05;;
71622;SDS011;59473;53.214;5.728;2022-09-14T13:24:27;7.57;;;0.77;;
71622;SDS011;59473;53.214;5.728;2022-09-14T13:26:53;6.75;;;0.90;;
71622;SDS011;59473;53.214;5.728;2022-09-14T13:29:20;7.40;;;1.20;;
71622;SDS011;59473;53.214;5.728;2022-09-14T13:31:45;3.45;;;0.70;;
71622;SDS011;59473;53.214;5.728;2022-09-14T13:34:18;4.07;;;0.70;;
71622;SDS011;59473;53.214;5.728;2022-09-14T13:36:44;4.50;;;0.80;;
71622;SDS011;59473;53.214;5.728;2022-09-14T13:39:29;4.93;;;0.77;;
71622;SDS011;59473;53.214;5.728;2022-09-14T13:41:56;5.68;;;0.80;;
71622;SDS011;59473;53.214;5.728;2022-09-14T13:44:24;8.93;;;1.10;;
71622;SDS011;59473;53.214;5.728;2022-09-14T13:46:50;7.22;;;1.60;;
71622;SDS011;59473;53.214;5.728;2022-09-14T13:49:15;8.53;;;1.27;;
71622;SDS011;59473;53.214;5.728;2022-09-14T13:51:40;6.53;;;1.37;;
71622;SDS011;59473;53.214;5.728;2022-09-14T13:54:25;5.43;;;0.77;;
71622;SDS011;59473;53.214;5.728;2022-09-14T13:57:13;8.63;;;1.30;;
71622;SDS011;59473;53.214;5.728;2022-09-14T14:00:02;8.82;;;1.15;;
71622;SDS011;59473;53.214;5.728;2022-09-14T14:02:23;13.52;;;1.20;;
71622;SDS011;59473;53.214;5.728;2022-09-14T14:04:50;9.10;;;1.13;;
71622;SDS011;59473;53.214;5.728;2022-09-14T14:07:17;10.13;;;1.17;;
71622;SDS011;59473;53.214;5.728;2022-09-14T14:09:50;9.00;;;1.00;;
71622;SDS011;59473;53.214;5.728;2022-09-14T14:12:35;5.63;;;0.90;;
71622;SDS011;59473;53.214;5.728;2022-09-14T14:15:05;7.47;;;1.27;;
71622;SDS011;59473;53.214;5.728;2022-09-14T14:17:37;7.85;;;1.00;;
71622;SDS011;59473;53.214;5.728;2022-09-14T14:22:53;4.00;;;0.90;;
71622;SDS011;59473;53.214;5.728;2022-09-14T14:25:19;7.50;;;1.10;;
71622;SDS011;59473;53.214;5.728;2022-09-14T14:27:56;7.80;;;1.20;;
71622;SDS011;59473;53.214;5.728;2022-09-14T14:30:21;10.82;;;1.05;;
71622;SDS011;59473;53.214;5.728;2022-09-14T14:32:48;6.45;;;1.00;;
71622;SDS011;59473;53.214;5.728;2022-09-14T14:35:15;6.93;;;1.30;;
71622;SDS011;59473;53.214;5.728;2022-09-14T14:37:41;8.23;;;1.30;;
71622;SDS011;59473;53.214;5.728;2022-09-14T14:40:07;6.37;;;0.87;;
71622;SDS011;59473;53.214;5.728;2022-09-14T14:42:32;4.50;;;0.73;;
71622;SDS011;59473;53.214;5.728;2022-09-14T14:44:58;6.10;;;1.60;;
71622;SDS011;59473;53.214;5.728;2022-09-14T14:47:24;6.53;;;1.45;;
71622;SDS011;59473;53.214;5.728;2022-09-14T14:49:51;7.10;;;1.08;;
71622;SDS011;59473;53.214;5.728;2022-09-14T14:52:17;5.95;;;1.08;;
71622;SDS011;59473;53.214;5.728;2022-09-14T14:54:42;7.60;;;1.00;;
71622;SDS011;59473;53.214;5.728;2022-09-14T14:57:07;7.77;;;1.07;;
71622;SDS011;59473;53.214;5.728;2022-09-14T14:59:34;7.90;;;0.98;;
71622;SDS011;59473;53.214;5.728;2022-09-14T15:01:59;6.47;;;0.90;;
71622;SDS011;59473;53.214;5.728;2022-09-14T15:04:24;7.60;;;0.87;;
71622;SDS011;59473;53.214;5.728;2022-09-14T15:06:50;7.57;;;1.30;;
71622;SDS011;59473;53.214;5.728;2022-09-14T15:09:16;3.67;;;0.60;;
71622;SDS011;59473;53.214;5.728;2022-09-14T15:11:42;6.57;;;0.90;;
71622;SDS011;59473;53.214;5.728;2022-09-14T15:14:11;4.87;;;1.10;;
71622;SDS011;59473;53.214;5.728;2022-09-14T15:16:37;6.30;;;0.93;;
71622;SDS011;59473;53.214;5.728;2022-09-14T15:19:02;5.57;;;0.80;;
71622;SDS011;59473;53.214;5.728;2022-09-14T15:21:27;5.57;;;0.80;;
71622;SDS011;59473;53.214;5.728;2022-09-14T15:23:53;6.13;;;0.80;;
71622;SDS011;59473;53.214;5.728;2022-09-14T15:26:18;4.07;;;0.60;;
71622;SDS011;59473;53.214;5.728;2022-09-14T15:28:43;4.27;;;0.90;;
71622;SDS011;59473;53.214;5.728;2022-09-14T15:31:09;4.63;;;0.77;;
71622;SDS011;59473;53.214;5.728;2022-09-14T15:33:35;4.47;;;0.82;;
71622;SDS011;59473;53.214;5.728;2022-09-14T15:36:01;6.87;;;1.23;;
71622;SDS011;59473;53.214;5.728;2022-09-14T15:38:27;6.82;;;0.75;;
71622;SDS011;59473;53.214;5.728;2022-09-14T15:40:52;6.70;;;0.80;;
71622;SDS011;59473;53.214;5.728;2022-09-14T15:43:17;7.53;;;1.10;;
71622;SDS011;59473;53.214;5.728;2022-09-14T15:45:42;6.13;;;0.63;;
71622;SDS011;59473;53.214;5.728;2022-09-14T15:48:12;7.70;;;0.90;;
71622;SDS011;59473;53.214;5.728;2022-09-14T15:50:41;6.38;;;0.98;;
71622;SDS011;59473;53.214;5.728;2022-09-14T15:53:07;3.50;;;0.70;;
71622;SDS011;59473;53.214;5.728;2022-09-14T15:55:32;5.18;;;0.70;;
71622;SDS011;59473;53.214;5.728;2022-09-14T15:57:58;4.72;;;0.90;;
71622;SDS011;59473;53.214;5.728;2022-09-14T16:00:23;4.72;;;1.00;;
71622;SDS011;59473;53.214;5.728;2022-09-14T16:02:48;4.43;;;0.80;;
71622;SDS011;59473;53.214;5.728;2022-09-14T16:05:14;4.57;;;0.75;;
71622;SDS011;59473;53.214;5.728;2022-09-14T16:07:40;8.70;;;0.90;;
71622;SDS011;59473;53.214;5.728;2022-09-14T16:10:05;5.03;;;0.77;;
71622;SDS011;59473;53.214;5.728;2022-09-14T16:12:31;6.33;;;1.00;;
71622;SDS011;59473;53.214;5.728;2022-09-14T16:14:56;4.40;;;0.77;;
71622;SDS011;59473;53.214;5.728;2022-09-14T16:17:21;5.83;;;1.00;;
71622;SDS011;59473;53.214;5.728;2022-09-14T16:19:47;4.20;;;0.60;;
71622;SDS011;59473;53.214;5.728;2022-09-14T16:22:13;4.32;;;0.93;;
71622;SDS011;59473;53.214;5.728;2022-09-14T16:24:38;5.38;;;0.88;;
71622;SDS011;59473;53.214;5.728;2022-09-14T16:27:04;4.70;;;0.70;;
71622;SDS011;59473;53.214;5.728;2022-09-14T16:29:29;4.33;;;0.80;;
71622;SDS011;59473;53.214;5.728;2022-09-14T16:31:54;4.67;;;0.90;;
71622;SDS011;59473;53.214;5.728;2022-09-14T16:34:21;6.90;;;1.03;;
71622;SDS011;59473;53.214;5.728;2022-09-14T16:36:47;6.07;;;0.82;;
71622;SDS011;59473;53.214;5.728;2022-09-14T16:39:14;4.80;;;0.77;;
71622;SDS011;59473;53.214;5.728;2022-09-14T16:41:40;5.60;;;0.82;;
71622;SDS011;59473;53.214;5.728;2022-09-14T16:44:06;3.40;;;0.67;;
71622;SDS011;59473;53.214;5.728;2022-09-14T16:46:32;7.20;;;1.25;;
71622;SDS011;59473;53.214;5.728;2022-09-14T16:48:57;2.63;;;0.70;;
71622;SDS011;59473;53.214;5.728;2022-09-14T16:51:23;3.10;;;0.70;;
71622;SDS011;59473;53.214;5.728;2022-09-14T16:53:49;3.58;;;0.77;;
71622;SDS011;59473;53.214;5.728;2022-09-14T16:56:20;3.15;;;0.90;;
71622;SDS011;59473;53.214;5.728;2022-09-14T16:58:46;5.75;;;1.08;;
71622;SDS011;59473;53.214;5.728;2022-09-14T17:01:30;3.73;;;0.83;;
71622;SDS011;59473;53.214;5.728;2022-09-14T17:03:57;3.25;;;0.70;;
71622;SDS011;59473;53.214;5.728;2022-09-14T17:06:23;4.28;;;0.80;;
71622;SDS011;59473;53.214;5.728;2022-09-14T17:08:51;4.68;;;0.70;;
71622;SDS011;59473;53.214;5.728;2022-09-14T17:11:16;6.45;;;0.90;;
71622;SDS011;59473;53.214;5.728;2022-09-14T17:13:42;6.33;;;0.70;;
71622;SDS011;59473;53.214;5.728;2022-09-14T17:16:09;4.07;;;0.90;;